Time;durP1;ratioP1;P1;durP2;ratioP2;P2;SDS_P1;SDS_P2;PMS_P1;PMS_P2;Temp;Humidity;BMP_temperature;BMP_pressure;BME280_temperature;BME280_humidity;BME280_pressure;Samples;Min_cycle;Max_cycle;Signal;HPM_P1;HPM_P2
2022/03/28 00:01:02;;;;;;;;;;;11.70;40.90;;;;;;5001307;28;19957;-62
2022/03/28 00:03:28;;;;;;;;;;;11.50;40.90;;;;;;5002066;28;19913;-62
2022/03/28 00:05:53;;;;;;;;;;;11.40;41.40;;;;;;5002189;28;19917;-63
2022/03/28 00:08:19;;;;;;;;;;;11.40;41.90;;;;;;5002182;28;19965;-61
2022/03/28 00:10:44;;;;;;;;;;;11.30;42.50;;;;;;5001606;28;19910;-61
2022/03/28 00:13:10;;;;;;;;;;;11.20;42.40;;;;;;5002661;28;19961;-62
2022/03/28 00:15:36;;;;;;;;;;;11.20;42.40;;;;;;5006198;28;19922;-63
2022/03/28 00:18:02;;;;;;;;;;;11.10;42.50;;;;;;5005307;28;19918;-61
2022/03/28 00:20:28;;;;;;;;;;;11.10;42.20;;;;;;5003485;28;19967;-64
2022/03/28 00:22:53;;;;;;;;;;;11.10;42.40;;;;;;5004146;28;19910;-62
2022/03/28 00:25:19;;;;;;;;;;;11.10;42.70;;;;;;5003184;28;20398;-67
2022/03/28 00:27:44;;;;;;;;;;;11.00;42.50;;;;;;5001310;28;19917;-61
2022/03/28 00:30:10;;;;;;;;;;;11.00;42.70;;;;;;4999739;28;19910;-62
2022/03/28 00:32:36;;;;;;;;;;;11.00;43.10;;;;;;4999492;28;19929;-61
2022/03/28 00:35:02;;;;;;;;;;;11.00;43.40;;;;;;5001800;28;19922;-62
2022/03/28 00:37:27;;;;;;;;;;;11.00;43.50;;;;;;5004189;28;19910;-62
2022/03/28 00:39:53;;;;;;;;;;;10.90;43.70;;;;;;5007139;28;19917;-61
2022/03/28 00:42:19;;;;;;;;;;;10.80;43.80;;;;;;5002469;28;19910;-64
2022/03/28 00:44:44;;;;;;;;;;;10.70;44.70;;;;;;4996717;28;20349;-61
2022/03/28 00:47:10;;;;;;;;;;;10.70;44.70;;;;;;4997917;28;19914;-62
2022/03/28 00:49:36;;;;;;;;;;;10.70;44.20;;;;;;4997892;28;20000;-62
2022/03/28 00:52:02;;;;;;;;;;;10.70;44.50;;;;;;4997730;28;19910;-66
2022/03/28 00:54:28;;;;;;;;;;;10.80;44.10;;;;;;4997908;28;20016;-61
2022/03/28 00:56:53;;;;;;;;;;;10.70;44.60;;;;;;4997939;28;19961;-63
2022/03/28 00:59:19;;;;;;;;;;;10.60;45.00;;;;;;4996992;28;19914;-64
2022/03/28 01:01:46;;;;;;;;;;;10.50;44.90;;;;;;4997179;28;19917;-62
2022/03/28 01:04:12;;;;;;;;;;;10.50;45.10;;;;;;4996896;28;19956;-61
2022/03/28 01:06:38;;;;;;;;;;;10.50;45.00;;;;;;4997474;28;20013;-62
2022/03/28 01:09:04;;;;;;;;;;;10.50;44.40;;;;;;4996664;28;20341;-61
2022/03/28 01:11:30;;;;;;;;;;;10.60;43.90;;;;;;4997541;28;19914;-61
2022/03/28 01:13:57;;;;;;;;;;;10.60;44.30;;;;;;4997438;28;20258;-61
2022/03/28 01:16:23;;;;;;;;;;;10.60;43.90;;;;;;4997825;28;20321;-62
2022/03/28 01:18:48;;;;;;;;;;;10.70;44.40;;;;;;4996774;28;19914;-62
2022/03/28 01:21:15;;;;;;;;;;;10.70;44.30;;;;;;4997303;28;19910;-61
2022/03/28 01:23:40;;;;;;;;;;;10.60;44.40;;;;;;4996838;28;19965;-61
2022/03/28 01:26:06;;;;;;;;;;;10.50;44.60;;;;;;4995363;28;19910;-61
2022/03/28 01:28:33;;;;;;;;;;;10.60;44.20;;;;;;4996886;28;19910;-63
2022/03/28 01:30:58;;;;;;;;;;;10.60;43.80;;;;;;4995484;28;19925;-62
2022/03/28 01:33:24;;;;;;;;;;;10.60;43.80;;;;;;4997821;28;19922;-63
2022/03/28 01:35:52;;;;;;;;;;;10.50;44.30;;;;;;4997096;28;19925;-61
2022/03/28 01:38:19;;;;;;;;;;;10.50;44.50;;;;;;4996962;28;19917;-62
2022/03/28 01:40:46;;;;;;;;;;;10.50;45.20;;;;;;4997055;28;19914;-61
2022/03/28 01:43:12;;;;;;;;;;;10.40;45.10;;;;;;4997237;28;19910;-61
2022/03/28 01:45:38;;;;;;;;;;;10.40;45.10;;;;;;4979145;28;19914;-62
2022/03/28 01:48:04;;;;;;;;;;;10.30;45.40;;;;;;4995555;28;20255;-62
2022/03/28 01:50:30;;;;;;;;;;;10.20;45.60;;;;;;4996962;28;20001;-62
2022/03/28 01:52:55;;;;;;;;;;;10.20;45.70;;;;;;4997446;28;19917;-62
2022/03/28 01:55:21;;;;;;;;;;;10.20;45.40;;;;;;4997607;28;19918;-61
2022/03/28 01:57:47;;;;;;;;;;;10.20;45.50;;;;;;4996952;28;19917;-62
2022/03/28 02:00:14;;;;;;;;;;;10.20;46.00;;;;;;4996802;28;19909;-61
2022/03/28 02:02:40;;;;;;;;;;;10.20;46.30;;;;;;4997674;28;20373;-62
2022/03/28 02:05:07;;;;;;;;;;;10.00;46.60;;;;;;5007793;28;19956;-62
2022/03/28 02:07:33;;;;;;;;;;;10.00;46.50;;;;;;5001433;28;20030;-61
2022/03/28 02:09:59;;;;;;;;;;;9.90;46.90;;;;;;4997651;28;19956;-62
2022/03/28 02:12:25;;;;;;;;;;;9.90;46.80;;;;;;4997125;28;19937;-62
2022/03/28 02:14:51;;;;;;;;;;;9.80;47.10;;;;;;4997339;28;19940;-61
2022/03/28 02:17:16;;;;;;;;;;;9.70;47.60;;;;;;4997865;28;19917;-62
2022/03/28 02:19:42;;;;;;;;;;;9.70;48.00;;;;;;4997899;28;19933;-61
2022/03/28 02:22:07;;;;;;;;;;;9.70;48.40;;;;;;4999542;28;19910;-63
2022/03/28 02:24:33;;;;;;;;;;;9.80;47.40;;;;;;4999519;28;19914;-63
2022/03/28 02:26:58;;;;;;;;;;;9.80;46.80;;;;;;4998851;28;19916;-62
2022/03/28 02:29:24;;;;;;;;;;;9.80;46.80;;;;;;4998855;28;20378;-62
2022/03/28 02:31:50;;;;;;;;;;;9.80;47.80;;;;;;4999000;28;19953;-62
2022/03/28 02:34:15;;;;;;;;;;;9.80;47.60;;;;;;4998215;28;20358;-62
2022/03/28 02:36:41;;;;;;;;;;;9.80;47.10;;;;;;4999973;28;19932;-62
2022/03/28 02:39:06;;;;;;;;;;;9.80;47.60;;;;;;5006977;28;20293;-67
2022/03/28 02:41:32;;;;;;;;;;;9.70;48.20;;;;;;5002863;28;19910;-61
2022/03/28 02:43:58;;;;;;;;;;;9.80;47.40;;;;;;5001075;28;20433;-61
2022/03/28 02:46:23;;;;;;;;;;;9.70;47.90;;;;;;4998675;28;20013;-61
2022/03/28 02:48:49;;;;;;;;;;;9.60;48.80;;;;;;4995366;28;19949;-62
2022/03/28 02:51:14;;;;;;;;;;;9.50;48.90;;;;;;4995203;28;19914;-61
2022/03/28 02:53:40;;;;;;;;;;;9.50;48.90;;;;;;4995739;28;20367;-64
2022/03/28 02:56:05;;;;;;;;;;;9.50;48.80;;;;;;4996360;28;19909;-62
2022/03/28 02:58:31;;;;;;;;;;;9.50;48.90;;;;;;4996230;28;20369;-61
2022/03/28 03:00:57;;;;;;;;;;;9.40;49.90;;;;;;4995760;28;20009;-61
2022/03/28 03:03:23;;;;;;;;;;;9.40;50.50;;;;;;4999280;28;19993;-62
2022/03/28 03:05:49;;;;;;;;;;;9.40;50.40;;;;;;5000306;28;20341;-62
2022/03/28 03:08:16;;;;;;;;;;;9.30;51.30;;;;;;5000762;28;20374;-62
2022/03/28 03:10:42;;;;;;;;;;;9.30;51.20;;;;;;5000300;28;20072;-61
2022/03/28 03:13:08;;;;;;;;;;;9.40;51.60;;;;;;5000397;28;19945;-61
2022/03/28 03:15:34;;;;;;;;;;;9.40;50.70;;;;;;4999416;28;19921;-61
2022/03/28 03:18:00;;;;;;;;;;;9.40;50.50;;;;;;4999922;28;19920;-61
2022/03/28 03:20:25;;;;;;;;;;;9.40;49.90;;;;;;4999283;28;19910;-61
2022/03/28 03:22:51;;;;;;;;;;;9.40;49.80;;;;;;4999932;28;20285;-61
2022/03/28 03:25:18;;;;;;;;;;;9.40;50.30;;;;;;4999653;28;19910;-61
2022/03/28 03:27:43;;;;;;;;;;;9.40;52.40;;;;;;5001132;28;20281;-61
2022/03/28 03:30:09;;;;;;;;;;;9.20;53.00;;;;;;5001133;28;19992;-62
2022/03/28 03:32:36;;;;;;;;;;;9.30;53.20;;;;;;5000596;28;19922;-62
2022/03/28 03:35:02;;;;;;;;;;;9.30;55.10;;;;;;4999667;28;20435;-62
2022/03/28 03:37:28;;;;;;;;;;;9.30;55.00;;;;;;5000863;28;19964;-63
2022/03/28 03:39:54;;;;;;;;;;;9.20;54.50;;;;;;4999915;28;19917;-61
2022/03/28 03:42:19;;;;;;;;;;;9.00;54.30;;;;;;5000192;28;19918;-63
2022/03/28 03:44:45;;;;;;;;;;;9.00;54.50;;;;;;4999390;28;19913;-62
2022/03/28 03:47:10;;;;;;;;;;;9.00;53.60;;;;;;5000390;28;19933;-62
2022/03/28 03:49:36;;;;;;;;;;;8.90;54.10;;;;;;5000825;28;19921;-61
2022/03/28 03:52:01;;;;;;;;;;;8.90;54.20;;;;;;5008387;28;19963;-62
2022/03/28 03:54:30;;;;;;;;;;;8.90;53.80;;;;;;5004463;28;19976;-61
2022/03/28 03:56:55;;;;;;;;;;;8.90;54.00;;;;;;5001166;28;19917;-61
2022/03/28 03:59:21;;;;;;;;;;;9.00;55.30;;;;;;4999812;28;19910;-62
2022/03/28 04:01:46;;;;;;;;;;;8.90;56.60;;;;;;4999764;28;19965;-61
2022/03/28 04:04:12;;;;;;;;;;;9.00;56.70;;;;;;5000778;28;20358;-61
2022/03/28 04:06:39;;;;;;;;;;;9.00;55.90;;;;;;5000045;28;20028;-61
2022/03/28 04:09:04;;;;;;;;;;;9.00;56.70;;;;;;4999513;28;19969;-61
2022/03/28 04:11:30;;;;;;;;;;;9.00;56.70;;;;;;5000233;28;19913;-64
2022/03/28 04:13:57;;;;;;;;;;;9.00;57.10;;;;;;4999334;28;19945;-62
2022/03/28 04:16:23;;;;;;;;;;;8.90;57.40;;;;;;4998692;28;19916;-62
2022/03/28 04:18:49;;;;;;;;;;;8.90;58.90;;;;;;4998681;28;20314;-63
2022/03/28 04:21:14;;;;;;;;;;;8.90;58.70;;;;;;4998909;28;19936;-61
2022/03/28 04:23:40;;;;;;;;;;;8.90;58.70;;;;;;5001043;28;20043;-62
2022/03/28 04:26:05;;;;;;;;;;;8.80;58.80;;;;;;5001422;28;19909;-61
2022/03/28 04:28:31;;;;;;;;;;;8.80;57.10;;;;;;5000327;28;19910;-62
2022/03/28 04:30:57;;;;;;;;;;;8.80;57.50;;;;;;5001409;28;20008;-61
2022/03/28 04:33:22;;;;;;;;;;;8.70;57.10;;;;;;4999907;28;19926;-62
2022/03/28 04:35:48;;;;;;;;;;;8.60;56.60;;;;;;5000479;28;19921;-62
2022/03/28 04:38:14;;;;;;;;;;;8.70;57.60;;;;;;5000474;28;19956;-61
2022/03/28 04:40:40;;;;;;;;;;;8.60;56.90;;;;;;5005196;28;20349;-62
2022/03/28 04:43:06;;;;;;;;;;;8.70;57.70;;;;;;5007093;28;19910;-61
2022/03/28 04:45:33;;;;;;;;;;;8.60;57.30;;;;;;5000049;28;19937;-61
2022/03/28 04:47:58;;;;;;;;;;;8.60;56.70;;;;;;4997721;28;19916;-61
2022/03/28 04:50:25;;;;;;;;;;;8.50;57.00;;;;;;4997425;28;20012;-61
2022/03/28 04:52:50;;;;;;;;;;;8.50;57.50;;;;;;4997718;28;20003;-61
2022/03/28 04:55:16;;;;;;;;;;;8.60;56.60;;;;;;4998671;28;20307;-61
2022/03/28 04:57:42;;;;;;;;;;;8.60;56.60;;;;;;4998071;28;19916;-61
2022/03/28 05:00:09;;;;;;;;;;;8.50;56.10;;;;;;4998263;28;19917;-65
2022/03/28 05:02:35;;;;;;;;;;;8.50;56.60;;;;;;4996789;28;19910;-62
2022/03/28 05:05:03;;;;;;;;;;;8.40;56.80;;;;;;4999016;28;19960;-62
2022/03/28 05:07:32;;;;;;;;;;;8.40;56.30;;;;;;4997609;28;19910;-62
2022/03/28 05:09:58;;;;;;;;;;;8.50;56.60;;;;;;4998049;28;20381;-61
2022/03/28 05:12:25;;;;;;;;;;;8.50;56.10;;;;;;4998096;28;20266;-67
2022/03/28 05:14:51;;;;;;;;;;;8.50;55.90;;;;;;4998005;28;19929;-62
2022/03/28 05:17:21;;;;;;;;;;;8.50;55.40;;;;;;4997752;28;19909;-61
2022/03/28 05:19:46;;;;;;;;;;;8.50;57.70;;;;;;4998809;28;19996;-61
2022/03/28 05:22:12;;;;;;;;;;;8.50;57.70;;;;;;4998577;28;20365;-62
2022/03/28 05:24:37;;;;;;;;;;;8.50;55.90;;;;;;4998980;28;19913;-62
2022/03/28 05:27:03;;;;;;;;;;;8.60;56.80;;;;;;4999217;28;19917;-66
2022/03/28 05:29:29;;;;;;;;;;;8.60;59.80;;;;;;4999445;28;19910;-61
2022/03/28 05:31:54;;;;;;;;;;;8.70;57.90;;;;;;4999126;28;19952;-61
2022/03/28 05:34:20;;;;;;;;;;;8.70;57.20;;;;;;4996579;28;19921;-62
2022/03/28 05:36:45;;;;;;;;;;;8.70;57.40;;;;;;4996019;28;19909;-59
2022/03/28 05:39:12;;;;;;;;;;;8.90;59.10;;;;;;4999169;28;20017;-59
2022/03/28 05:41:37;;;;;;;;;;;9.00;57.00;;;;;;5006109;28;19910;-59
2022/03/28 05:44:03;;;;;;;;;;;9.10;55.60;;;;;;4996539;28;20208;-59
2022/03/28 05:46:29;;;;;;;;;;;9.10;54.70;;;;;;4994985;28;19956;-61
2022/03/28 05:48:54;;;;;;;;;;;9.30;56.30;;;;;;4994881;28;19988;-59
2022/03/28 05:51:20;;;;;;;;;;;9.30;56.90;;;;;;4995059;28;19990;-58
2022/03/28 05:53:46;;;;;;;;;;;9.30;55.60;;;;;;4995060;28;20285;-58
2022/03/28 05:56:12;;;;;;;;;;;9.30;54.80;;;;;;4995293;28;19910;-58
2022/03/28 05:58:37;;;;;;;;;;;9.30;56.40;;;;;;4995002;28;20285;-58
2022/03/28 06:01:03;;;;;;;;;;;9.50;57.00;;;;;;4994612;28;19910;-60
2022/03/28 06:03:29;;;;;;;;;;;9.60;57.20;;;;;;4992713;28;20017;-59
2022/03/28 06:05:55;;;;;;;;;;;9.40;58.10;;;;;;4994546;28;19917;-59
2022/03/28 06:08:21;;;;;;;;;;;9.30;58.30;;;;;;4994567;28;20358;-59
2022/03/28 06:10:47;;;;;;;;;;;9.20;57.80;;;;;;4994655;28;19910;-58
2022/03/28 06:13:13;;;;;;;;;;;9.20;56.90;;;;;;4994519;28;19910;-59
2022/03/28 06:15:38;;;;;;;;;;;9.20;56.80;;;;;;4994692;28;19941;-60
2022/03/28 06:18:04;;;;;;;;;;;9.20;56.50;;;;;;4996351;28;19910;-59
2022/03/28 06:20:31;;;;;;;;;;;9.20;56.90;;;;;;4996622;28;19914;-59
2022/03/28 06:22:56;;;;;;;;;;;9.20;57.50;;;;;;4996090;28;19910;-59
2022/03/28 06:25:22;;;;;;;;;;;9.20;56.90;;;;;;4990472;28;19920;-59
2022/03/28 06:27:48;;;;;;;;;;;9.40;57.50;;;;;;4995445;28;19910;-59
2022/03/28 06:30:14;;;;;;;;;;;9.70;56.50;;;;;;4996496;28;19910;-59
2022/03/28 06:32:40;;;;;;;;;;;9.90;58.00;;;;;;4995558;28;20292;-59
2022/03/28 06:35:07;;;;;;;;;;;10.30;58.10;;;;;;4994660;28;19918;-59
2022/03/28 06:37:33;;;;;;;;;;;10.50;57.50;;;;;;4994582;28;20353;-59
2022/03/28 06:39:59;;;;;;;;;;;10.80;57.10;;;;;;4997832;28;19917;-59
2022/03/28 06:42:25;;;;;;;;;;;11.10;57.00;;;;;;4997833;28;20394;-60
2022/03/28 06:44:51;;;;;;;;;;;11.40;56.10;;;;;;4997309;28;19914;-60
2022/03/28 06:47:17;;;;;;;;;;;11.60;56.20;;;;;;4997897;28;19910;-60
2022/03/28 06:49:42;;;;;;;;;;;11.80;55.80;;;;;;4999100;28;19994;-65
2022/03/28 06:52:09;;;;;;;;;;;11.90;55.80;;;;;;5013421;28;20354;-61
2022/03/28 06:54:35;;;;;;;;;;;12.30;55.80;;;;;;5003185;28;20004;-60
2022/03/28 06:57:02;;;;;;;;;;;12.40;55.80;;;;;;4999695;28;19964;-60
2022/03/28 06:59:28;;;;;;;;;;;12.70;54.30;;;;;;4998243;28;19916;-59
2022/03/28 07:01:54;;;;;;;;;;;12.90;52.00;;;;;;4998534;28;19916;-60
2022/03/28 07:04:21;;;;;;;;;;;13.10;51.00;;;;;;4998342;28;19913;-60
2022/03/28 07:06:47;;;;;;;;;;;13.20;50.70;;;;;;4998861;28;19910;-59
2022/03/28 07:09:13;;;;;;;;;;;13.20;50.70;;;;;;4999182;28;19913;-60
2022/03/28 07:11:38;;;;;;;;;;;13.20;50.20;;;;;;4998996;28;20281;-60
2022/03/28 07:14:04;;;;;;;;;;;13.40;49.00;;;;;;4999227;28;20051;-60
2022/03/28 07:16:30;;;;;;;;;;;13.50;48.10;;;;;;5000488;28;19913;-60
2022/03/28 07:18:55;;;;;;;;;;;13.70;48.50;;;;;;5000715;28;20360;-60
2022/03/28 07:21:21;;;;;;;;;;;13.90;48.30;;;;;;5000270;28;19957;-61
2022/03/28 07:23:48;;;;;;;;;;;14.10;47.40;;;;;;5003307;28;19918;-60
2022/03/28 07:26:14;;;;;;;;;;;14.30;46.60;;;;;;5007670;28;19910;-59
2022/03/28 07:28:40;;;;;;;;;;;14.30;45.40;;;;;;5007820;28;19910;-61
2022/03/28 07:31:09;;;;;;;;;;;14.20;45.20;;;;;;5008429;28;19910;-60
2022/03/28 07:33:36;;;;;;;;;;;14.30;45.10;;;;;;5007776;28;20401;-60
2022/03/28 07:36:10;;;;;;;;;;;14.40;45.00;;;;;;5008940;28;19921;-60
2022/03/28 07:38:37;;;;;;;;;;;14.60;45.50;;;;;;5008100;28;19913;-61
2022/03/28 07:41:04;;;;;;;;;;;14.80;45.80;;;;;;4998544;28;19918;-60
2022/03/28 07:43:30;;;;;;;;;;;14.90;45.60;;;;;;4998340;28;20569;-60
2022/03/28 07:45:56;;;;;;;;;;;14.90;45.10;;;;;;4998562;28;19910;-60
2022/03/28 07:48:22;;;;;;;;;;;14.70;49.40;;;;;;5001212;28;20302;-60
2022/03/28 07:50:49;;;;;;;;;;;14.80;49.80;;;;;;4997852;28;20433;-60
2022/03/28 07:53:14;;;;;;;;;;;15.00;50.90;;;;;;4997760;28;19956;-61
2022/03/28 07:55:40;;;;;;;;;;;15.20;51.90;;;;;;4997998;28;19976;-59
2022/03/28 07:58:06;;;;;;;;;;;15.40;52.90;;;;;;4997644;28;20383;-60
2022/03/28 08:00:32;;;;;;;;;;;15.30;52.90;;;;;;4998391;28;19956;-61
2022/03/28 08:02:58;;;;;;;;;;;15.20;54.80;;;;;;4997551;28;19913;-59
2022/03/28 08:05:24;;;;;;;;;;;15.30;55.80;;;;;;4998314;28;19948;-60
2022/03/28 08:07:50;;;;;;;;;;;15.40;56.40;;;;;;4997504;28;20281;-57
2022/03/28 08:10:16;;;;;;;;;;;15.70;56.80;;;;;;4996420;28;19910;-58
2022/03/28 08:12:47;;;;;;;;;;;15.60;57.20;;;;;;4998196;28;19917;-62
2022/03/28 08:15:14;;;;;;;;;;;15.50;57.00;;;;;;4998157;28;19918;-59
2022/03/28 08:17:39;;;;;;;;;;;15.50;57.20;;;;;;4997839;28;19910;-58
2022/03/28 08:20:06;;;;;;;;;;;15.60;57.40;;;;;;4997747;28;19921;-59
2022/03/28 08:22:32;;;;;;;;;;;15.40;58.00;;;;;;4997318;28;19910;-59
2022/03/28 08:24:58;;;;;;;;;;;15.40;58.50;;;;;;4997313;28;19910;-59
2022/03/28 08:27:24;;;;;;;;;;;15.60;58.10;;;;;;4997241;28;19920;-58
2022/03/28 08:29:50;;;;;;;;;;;15.80;57.10;;;;;;4997417;28;19914;-58
2022/03/28 08:32:15;;;;;;;;;;;15.70;57.80;;;;;;4998536;28;20000;-62
2022/03/28 08:34:41;;;;;;;;;;;15.30;58.70;;;;;;4999817;28;19918;-59
2022/03/28 08:37:09;;;;;;;;;;;15.70;58.30;;;;;;5000182;28;19910;-59
2022/03/28 08:39:35;;;;;;;;;;;16.20;57.30;;;;;;4999571;28;19956;-59
2022/03/28 08:42:00;;;;;;;;;;;16.50;56.50;;;;;;4999217;28;19913;-59
2022/03/28 08:44:27;;;;;;;;;;;16.80;55.70;;;;;;4995994;28;19945;-58
2022/03/28 08:46:55;;;;;;;;;;;16.70;54.80;;;;;;4995300;28;19916;-58
2022/03/28 08:49:20;;;;;;;;;;;15.90;57.30;;;;;;4995473;28;20274;-57
2022/03/28 08:51:46;;;;;;;;;;;15.90;58.20;;;;;;4995421;28;19914;-58
2022/03/28 08:54:13;;;;;;;;;;;15.80;57.80;;;;;;4995616;28;19914;-60
2022/03/28 08:56:39;;;;;;;;;;;16.00;57.80;;;;;;4995537;28;20267;-59
2022/03/28 08:59:05;;;;;;;;;;;15.60;58.00;;;;;;4995217;28;20312;-59
2022/03/28 09:01:31;;;;;;;;;;;15.10;59.70;;;;;;4995106;28;20016;-59
2022/03/28 09:04:05;;;;;;;;;;;15.00;60.90;;;;;;4995039;28;20353;-58
2022/03/28 09:06:37;;;;;;;;;;;15.40;60.30;;;;;;4995165;28;19914;-60
2022/03/28 09:09:10;;;;;;;;;;;15.70;58.90;;;;;;4995871;28;19910;-59
2022/03/28 09:11:36;;;;;;;;;;;16.10;58.50;;;;;;4995456;28;19910;-64
2022/03/28 09:14:02;;;;;;;;;;;16.40;58.20;;;;;;4995745;28;19965;-61
2022/03/28 09:16:31;;;;;;;;;;;16.30;56.90;;;;;;5000499;28;20302;-67
2022/03/28 09:19:00;;;;;;;;;;;16.10;57.80;;;;;;5004080;28;19949;-62
2022/03/28 09:21:25;;;;;;;;;;;16.10;57.90;;;;;;4999103;28;19963;-62
2022/03/28 09:23:53;;;;;;;;;;;16.00;57.40;;;;;;4999753;28;19916;-61
2022/03/28 09:26:20;;;;;;;;;;;15.50;58.20;;;;;;4996869;28;19910;-61
2022/03/28 09:28:56;;;;;;;;;;;15.20;59.30;;;;;;4995114;28;19946;-63
2022/03/28 09:31:24;;;;;;;;;;;14.80;60.60;;;;;;5000927;28;20381;-60
2022/03/28 09:34:09;;;;;;;;;;;15.10;60.80;;;;;;4999134;28;19924;-62
2022/03/28 09:36:48;;;;;;;;;;;15.20;62.00;;;;;;4994010;28;19929;-62
2022/03/28 09:39:18;;;;;;;;;;;15.40;60.90;;;;;;4994394;28;19965;-60
2022/03/28 09:41:45;;;;;;;;;;;15.00;60.40;;;;;;4992357;28;19997;-61
2022/03/28 09:44:11;;;;;;;;;;;15.10;61.10;;;;;;4998004;28;19964;-61
2022/03/28 09:46:37;;;;;;;;;;;14.90;61.60;;;;;;4995059;28;19914;-61
2022/03/28 09:49:03;;;;;;;;;;;15.10;61.90;;;;;;4995134;28;20440;-62
2022/03/28 09:51:30;;;;;;;;;;;15.40;61.10;;;;;;4994081;28;19945;-61
2022/03/28 09:53:56;;;;;;;;;;;15.60;59.80;;;;;;4994159;28;19965;-61
2022/03/28 09:56:22;;;;;;;;;;;15.70;59.20;;;;;;4993903;28;19978;-61
2022/03/28 09:58:59;;;;;;;;;;;15.30;59.80;;;;;;4994236;28;19981;-61
2022/03/28 10:01:39;;;;;;;;;;;14.90;61.30;;;;;;4992241;28;19914;-60
2022/03/28 10:04:11;;;;;;;;;;;14.70;61.70;;;;;;4995048;28;19921;-62
2022/03/28 10:06:38;;;;;;;;;;;14.80;62.90;;;;;;4995350;28;19910;-60
2022/03/28 10:09:04;;;;;;;;;;;15.00;61.80;;;;;;4996349;28;20270;-61
2022/03/28 10:11:31;;;;;;;;;;;15.30;61.20;;;;;;4994908;28;19921;-63
2022/03/28 10:13:57;;;;;;;;;;;15.40;61.50;;;;;;4995694;28;20358;-64
2022/03/28 10:16:22;;;;;;;;;;;15.40;61.00;;;;;;4995404;28;19910;-65
2022/03/28 10:18:50;;;;;;;;;;;15.30;60.20;;;;;;4995521;28;19960;-64
2022/03/28 10:21:21;;;;;;;;;;;15.40;61.00;;;;;;4997307;28;19910;-65
2022/03/28 10:23:54;;;;;;;;;;;15.40;60.40;;;;;;4979433;28;19977;-64
2022/03/28 10:26:25;;;;;;;;;;;15.00;61.10;;;;;;4980441;28;20495;-67
2022/03/28 10:28:58;;;;;;;;;;;14.80;62.50;;;;;;4981943;28;20325;-62
2022/03/28 10:31:24;;;;;;;;;;;15.20;62.40;;;;;;4993636;28;19910;-75
2022/03/28 10:33:51;;;;;;;;;;;15.50;61.10;;;;;;4999436;28;19925;-69
2022/03/28 10:36:24;;;;;;;;;;;15.60;59.40;;;;;;4999041;28;20040;-68
2022/03/28 10:38:53;;;;;;;;;;;15.10;61.30;;;;;;4998739;28;20090;-66
2022/03/28 10:41:20;;;;;;;;;;;14.70;61.90;;;;;;4998434;28;19921;-67
2022/03/28 10:43:46;;;;;;;;;;;14.90;62.40;;;;;;4996969;28;20066;-67
2022/03/28 10:46:12;;;;;;;;;;;15.20;61.60;;;;;;4998699;28;19982;-66
2022/03/28 10:48:40;;;;;;;;;;;15.50;60.90;;;;;;5000560;28;19910;-66
2022/03/28 10:51:10;;;;;;;;;;;15.70;59.70;;;;;;4994762;28;19997;-60
2022/03/28 10:53:40;;;;;;;;;;;15.70;58.10;;;;;;4995872;28;19910;-69
2022/03/28 10:56:17;;;;;;;;;;;15.70;57.70;;;;;;4999661;28;19917;-68
2022/03/28 10:58:44;;;;;;;;;;;15.90;57.90;;;;;;5002650;28;19973;-63
2022/03/28 11:01:13;;;;;;;;;;;16.00;57.90;;;;;;4997950;28;20005;-66
2022/03/28 11:03:41;;;;;;;;;;;15.70;57.70;;;;;;4996489;28;19957;-67
2022/03/28 11:06:07;;;;;;;;;;;15.60;57.50;;;;;;4994268;28;19978;-63
2022/03/28 11:08:33;;;;;;;;;;;15.50;58.40;;;;;;4995820;28;20360;-63
2022/03/28 11:11:15;;;;;;;;;;;15.60;58.10;;;;;;4995516;28;19960;-64
2022/03/28 11:13:41;;;;;;;;;;;14.80;59.70;;;;;;4996221;28;19921;-63
2022/03/28 11:16:16;;;;;;;;;;;15.00;60.60;;;;;;4996695;28;20503;-62
2022/03/28 11:18:42;;;;;;;;;;;15.00;60.20;;;;;;4997720;28;19945;-61
2022/03/28 11:21:10;;;;;;;;;;;14.70;61.30;;;;;;5002168;28;19914;-59
2022/03/28 11:23:42;;;;;;;;;;;15.00;61.30;;;;;;4999157;28;19942;-61
2022/03/28 11:26:08;;;;;;;;;;;15.00;61.00;;;;;;4998952;28;20365;-62
2022/03/28 11:28:38;;;;;;;;;;;14.50;63.10;;;;;;4998466;28;19913;-61
2022/03/28 11:31:06;;;;;;;;;;;13.90;65.30;;;;;;4999278;28;20269;-62
2022/03/28 11:33:36;;;;;;;;;;;13.70;66.40;;;;;;4997379;28;19922;-60
2022/03/28 11:36:06;;;;;;;;;;;13.60;66.80;;;;;;4997443;28;19917;-63
2022/03/28 11:38:34;;;;;;;;;;;13.40;67.70;;;;;;5000403;28;20005;-61
2022/03/28 11:41:01;;;;;;;;;;;13.70;67.80;;;;;;4997023;28;19920;-61
2022/03/28 11:43:34;;;;;;;;;;;13.80;67.00;;;;;;4997408;28;20358;-63
2022/03/28 11:46:00;;;;;;;;;;;14.30;66.20;;;;;;5008436;28;19914;-61
2022/03/28 11:48:26;;;;;;;;;;;14.70;62.60;;;;;;5000418;28;19917;-60
2022/03/28 11:50:54;;;;;;;;;;;15.00;60.90;;;;;;4997169;28;19913;-67
2022/03/28 11:53:19;;;;;;;;;;;15.40;59.40;;;;;;4995075;28;19988;-60
2022/03/28 11:55:52;;;;;;;;;;;15.60;58.60;;;;;;4996452;28;19961;-59
2022/03/28 11:58:26;;;;;;;;;;;15.60;58.60;;;;;;4997105;28;20455;-62
2022/03/28 12:00:52;;;;;;;;;;;15.70;58.20;;;;;;4995869;28;19914;-61
2022/03/28 12:03:17;;;;;;;;;;;15.90;58.70;;;;;;4995080;28;19944;-59
2022/03/28 12:05:47;;;;;;;;;;;15.60;59.70;;;;;;4995180;28;20273;-59
2022/03/28 12:08:15;;;;;;;;;;;14.90;61.80;;;;;;4995426;28;19933;-60
2022/03/28 12:10:51;;;;;;;;;;;15.10;62.80;;;;;;4996723;28;19906;-59
2022/03/28 12:13:18;;;;;;;;;;;14.80;61.70;;;;;;4997231;28;19910;-60
2022/03/28 12:15:47;;;;;;;;;;;14.30;63.90;;;;;;4995380;28;19922;-60
2022/03/28 12:18:14;;;;;;;;;;;14.60;63.80;;;;;;4995452;28;20398;-59
2022/03/28 12:20:44;;;;;;;;;;;14.90;62.70;;;;;;4995896;28;19910;-60
2022/03/28 12:23:10;;;;;;;;;;;14.70;62.50;;;;;;4995588;28;19929;-59
2022/03/28 12:25:38;;;;;;;;;;;15.00;63.00;;;;;;4995650;28;20047;-60
2022/03/28 12:28:08;;;;;;;;;;;15.30;61.60;;;;;;4995784;28;19956;-60
2022/03/28 12:30:35;;;;;;;;;;;15.30;60.80;;;;;;4995854;28;19986;-59
2022/03/28 12:33:08;;;;;;;;;;;15.40;60.90;;;;;;4995763;28;19922;-60
2022/03/28 12:35:34;;;;;;;;;;;15.60;60.00;;;;;;4995297;28;19918;-60
2022/03/28 12:38:03;;;;;;;;;;;15.80;59.20;;;;;;4995632;28;19910;-59
2022/03/28 12:40:30;;;;;;;;;;;15.80;58.90;;;;;;4995770;28;19910;-60
2022/03/28 12:42:55;;;;;;;;;;;15.50;60.10;;;;;;4994813;28;19910;-59
2022/03/28 12:45:27;;;;;;;;;;;15.70;60.00;;;;;;4995840;28;19910;-59
2022/03/28 12:48:11;;;;;;;;;;;15.80;59.60;;;;;;4997800;28;19910;-60
2022/03/28 12:50:57;;;;;;;;;;;15.60;59.00;;;;;;4997476;28;19910;-59
2022/03/28 12:53:27;;;;;;;;;;;15.40;61.10;;;;;;4996979;28;19920;-61
2022/03/28 12:55:53;;;;;;;;;;;15.60;61.00;;;;;;4996019;28;19925;-61
2022/03/28 12:58:29;;;;;;;;;;;15.70;60.70;;;;;;4996830;28;19914;-62
2022/03/28 13:01:01;;;;;;;;;;;15.80;60.00;;;;;;4996740;28;19955;-61
2022/03/28 13:03:28;;;;;;;;;;;15.90;59.50;;;;;;4993374;28;19917;-61
2022/03/28 13:06:07;;;;;;;;;;;15.40;60.00;;;;;;4996072;28;19910;-59
2022/03/28 13:08:33;;;;;;;;;;;15.50;60.50;;;;;;4995594;28;19954;-60
2022/03/28 13:11:09;;;;;;;;;;;15.40;61.00;;;;;;4996359;28;19910;-61
2022/03/28 13:13:35;;;;;;;;;;;15.50;61.00;;;;;;4993820;28;19910;-60
2022/03/28 13:16:00;;;;;;;;;;;15.80;60.50;;;;;;4996055;28;19937;-59
2022/03/28 13:18:27;;;;;;;;;;;15.90;60.00;;;;;;4996781;28;19982;-59
2022/03/28 13:20:59;;;;;;;;;;;15.60;60.40;;;;;;5000966;28;19910;-58
2022/03/28 13:23:26;;;;;;;;;;;15.80;60.40;;;;;;5004842;28;19914;-58
2022/03/28 13:25:55;;;;;;;;;;;15.80;60.10;;;;;;5006041;28;20005;-58
2022/03/28 13:28:44;;;;;;;;;;;;;;;;;;;;;
2022/03/28 13:31:14;;;;;;;;;;;15.80;60.40;;;;;;5008416;28;19973;-59
2022/03/28 13:33:39;;;;;;;;;;;15.70;60.00;;;;;;5005456;28;19948;-58
2022/03/28 13:36:05;;;;;;;;;;;15.40;60.90;;;;;;5005846;28;19918;-59
2022/03/28 13:38:37;;;;;;;;;;;15.50;61.50;;;;;;5003625;28;19924;-59
2022/03/28 13:41:02;;;;;;;;;;;15.60;61.40;;;;;;5003755;28;19918;-60
2022/03/28 13:43:28;;;;;;;;;;;15.80;61.10;;;;;;5003456;28;19910;-60
2022/03/28 13:45:53;;;;;;;;;;;15.70;60.00;;;;;;5002714;28;19910;-60
2022/03/28 13:48:23;;;;;;;;;;;15.60;60.60;;;;;;5002627;28;19914;-59
2022/03/28 13:50:58;;;;;;;;;;;15.70;60.80;;;;;;5001162;28;19910;-59
2022/03/28 13:53:24;;;;;;;;;;;15.60;61.10;;;;;;4997568;28;19942;-61
2022/03/28 13:55:49;;;;;;;;;;;15.50;62.10;;;;;;4996621;28;19922;-59
2022/03/28 13:58:15;;;;;;;;;;;15.60;61.50;;;;;;4996003;28;19917;-60
2022/03/28 14:00:41;;;;;;;;;;;15.60;61.40;;;;;;4995540;28;19992;-60
2022/03/28 14:03:10;;;;;;;;;;;15.70;61.00;;;;;;4995724;28;19914;-59
2022/03/28 14:05:51;;;;;;;;;;;15.70;60.80;;;;;;4995770;28;19917;-59
2022/03/28 14:08:28;;;;;;;;;;;15.60;61.30;;;;;;4995192;28;19909;-60
2022/03/28 14:10:54;;;;;;;;;;;15.10;62.50;;;;;;4995330;28;19910;-59
2022/03/28 14:13:20;;;;;;;;;;;14.80;63.80;;;;;;5003507;28;19910;-59
2022/03/28 14:15:58;;;;;;;;;;;14.80;64.40;;;;;;5001298;28;20334;-60
2022/03/28 14:18:26;;;;;;;;;;;14.70;64.20;;;;;;4995877;28;19910;-59
2022/03/28 14:20:55;;;;;;;;;;;14.70;64.50;;;;;;4996357;28;20374;-59